Crane Gaia — 3FXX2 — position and weather

sailwx.info

Track history (hours):
 
Tides and Currents Weather Stations Pressure Air Temp Water Temp Dewpoint Dewpoint Depression Visibility Wind Speed Wind Dir Waves Ship Positions

Crane Gaia

Last reported at 2017-Dec-16 20:23 UTC. Time now 2017-Dec-17 17:46 UTC.
Position N 41°18' E 140°14'.

Length 115 m; draft 7 m.

Type: Tanker. MMSI: 352461000.

Date/timePositionNaut miles runAvg speedWind from/ knotsBaromVisibWave heightAir tempDewpointWater temp
2017-Dec-16 20:23N 41°18' E 140°14'410.9
2017-Dec-16 19:59N 41°21' E 140°18'511.1
2017-Dec-16 19:30N 41°24' E 140°24'612.3
2017-Dec-16 19:00N 41°28' E 140°30'612.1
2017-Dec-16 18:30N 41°31' E 140°37'611.4
2017-Dec-16 17:59N 41°34' E 140°44'511.2
2017-Dec-16 17:29N 41°38' E 140°50'5 9.3
2017-Dec-16 17:00N 41°38' E 140°56'4 8.3
2017-Dec-16 16:30N 41°38' E 141°01'5 9.2
2017-Dec-16 16:00N 41°40' E 141°07'612.8
2017-Dec-16 15:30N 41°45' E 141°13'612.3
2017-Dec-16 15:00N 41°50' E 141°17'14 0.3
2017-Dec-14 18:31N 41°39' E 141°07'815.5
2017-Dec-14 18:00N 41°38' E 140°56'816.1
2017-Dec-14 17:30N 41°37' E 140°46'815.7
2017-Dec-14 17:01N 41°32' E 140°38'715.0
2017-Dec-14 16:31N 41°27' E 140°30'916.5
2017-Dec-14 15:59N 41°22' E 140°21'  
Track history (hours):
 
Tides and Currents Weather Stations Pressure Air Temp Water Temp Dewpoint Dewpoint Depression Visibility Wind Speed Wind Dir Waves Ship Positions

Crane Gaia

Last reported at 2017-Dec-16 20:23 UTC. Time now 2017-Dec-17 17:46 UTC.
Position N 41°18' E 140°14'.

Length 115 m; draft 7 m.

Type: Tanker. MMSI: 352461000.

Date/timePositionNaut miles runAvg speedWind from/ knotsBaromVisibWave heightAir tempDewpointWater temp
2017-Dec-16 20:23N 41°18' E 140°14'410.9
2017-Dec-16 19:59N 41°21' E 140°18'511.1
2017-Dec-16 19:30N 41°24' E 140°24'612.3
2017-Dec-16 19:00N 41°28' E 140°30'612.1
2017-Dec-16 18:30N 41°31' E 140°37'611.4
2017-Dec-16 17:59N 41°34' E 140°44'511.2
2017-Dec-16 17:29N 41°38' E 140°50'5 9.3
2017-Dec-16 17:00N 41°38' E 140°56'4 8.3
2017-Dec-16 16:30N 41°38' E 141°01'5 9.2
2017-Dec-16 16:00N 41°40' E 141°07'612.8
2017-Dec-16 15:30N 41°45' E 141°13'612.3
2017-Dec-16 15:00N 41°50' E 141°17'14 0.3
2017-Dec-14 18:31N 41°39' E 141°07'815.5
2017-Dec-14 18:00N 41°38' E 140°56'816.1
2017-Dec-14 17:30N 41°37' E 140°46'815.7
2017-Dec-14 17:01N 41°32' E 140°38'715.0
2017-Dec-14 16:31N 41°27' E 140°30'916.5
2017-Dec-14 15:59N 41°22' E 140°21'  

Dump ship's entire track history